createdAt,value
2023-09-03T00:00:18.465Z,18.87
2023-09-03T00:02:46.499Z,18.85
2023-09-03T00:05:14.512Z,18.83
2023-09-03T00:07:42.704Z,18.82
2023-09-03T00:10:12.434Z,18.79
2023-09-03T00:12:40.401Z,18.79
2023-09-03T00:15:11.065Z,18.80
2023-09-03T00:17:41.970Z,18.82
2023-09-03T00:20:11.393Z,18.79
2023-09-03T00:22:40.134Z,18.80
2023-09-03T00:25:09.001Z,18.78
2023-09-03T00:27:42.558Z,18.73
2023-09-03T00:30:14.100Z,18.68
2023-09-03T00:32:48.268Z,18.68
2023-09-03T00:35:16.406Z,18.61
2023-09-03T00:37:44.455Z,18.55
2023-09-03T00:40:13.413Z,18.56
2023-09-03T00:42:45.196Z,18.57
2023-09-03T00:45:13.309Z,18.56
2023-09-03T00:47:41.713Z,18.57
2023-09-03T00:50:10.895Z,18.55
2023-09-03T00:52:39.624Z,18.54
2023-09-03T00:55:09.025Z,18.55
2023-09-03T00:57:39.641Z,18.60
2023-09-03T01:00:12.458Z,18.62
2023-09-03T01:02:45.239Z,18.60
2023-09-03T01:05:14.263Z,18.59
2023-09-03T01:07:44.750Z,18.59
2023-09-03T01:10:13.099Z,18.49
2023-09-03T01:12:52.908Z,18.40
2023-09-03T01:15:31.734Z,18.41
2023-09-03T01:18:07.598Z,18.37
2023-09-03T01:20:40.893Z,18.33
2023-09-03T01:23:39.771Z,18.32
2023-09-03T01:26:23.820Z,18.31
2023-09-03T01:28:56.288Z,18.30
2023-09-03T01:31:25.210Z,18.25
2023-09-03T01:33:59.907Z,18.27
2023-09-03T01:36:28.096Z,18.30
2023-09-03T01:39:00.797Z,18.31
2023-09-03T01:41:29.955Z,18.33
2023-09-03T01:43:59.449Z,18.33
2023-09-03T01:46:43.876Z,18.31
2023-09-03T01:49:26.210Z,18.31
2023-09-03T01:52:05.747Z,18.26
2023-09-03T01:54:47.090Z,18.20
2023-09-03T01:57:20.915Z,18.19
2023-09-03T01:59:56.169Z,18.14
2023-09-03T02:02:27.626Z,18.12
2023-09-03T02:04:56.282Z,18.14
2023-09-03T02:07:24.327Z,18.13
2023-09-03T02:09:53.501Z,18.16
2023-09-03T02:12:25.068Z,18.19
2023-09-03T02:14:54.788Z,18.21
2023-09-03T02:17:22.775Z,18.17
2023-09-03T02:19:53.003Z,18.17
2023-09-03T02:22:21.488Z,18.16
2023-09-03T02:24:50.089Z,18.15
2023-09-03T02:27:18.019Z,18.15
2023-09-03T02:29:50.313Z,18.14
2023-09-03T02:32:19.649Z,18.12
2023-09-03T02:34:47.961Z,18.07
2023-09-03T02:37:15.984Z,18.04
2023-09-03T02:39:46.575Z,18.02
2023-09-03T02:42:16.903Z,18.00
2023-09-03T02:44:45.049Z,17.97
2023-09-03T02:47:13.009Z,17.97
2023-09-03T02:49:42.475Z,17.92
2023-09-03T02:52:10.616Z,17.91
2023-09-03T02:54:39.545Z,17.89
2023-09-03T02:57:07.537Z,17.93
2023-09-03T02:59:38.374Z,17.89
2023-09-03T03:02:08.007Z,17.83
2023-09-03T03:04:37.282Z,17.83
2023-09-03T03:07:07.047Z,17.84
2023-09-03T03:09:38.015Z,17.86
2023-09-03T03:12:06.689Z,17.87
2023-09-03T03:14:37.089Z,17.83
2023-09-03T03:17:05.502Z,17.80
2023-09-03T03:19:35.124Z,17.79
2023-09-03T03:22:04.483Z,17.78
2023-09-03T03:24:33.961Z,17.78
2023-09-03T03:27:02.461Z,17.78
2023-09-03T03:29:30.559Z,17.78
2023-09-03T03:31:58.594Z,17.78
2023-09-03T03:34:27.504Z,17.73
2023-09-03T03:36:55.750Z,17.75
2023-09-03T03:39:23.903Z,17.69
2023-09-03T03:41:53.689Z,17.67
2023-09-03T03:44:21.874Z,17.68
2023-09-03T03:46:49.942Z,17.68
2023-09-03T03:49:18.264Z,17.63
2023-09-03T03:51:46.257Z,17.62
2023-09-03T03:54:14.351Z,17.60
2023-09-03T03:56:42.386Z,17.57
2023-09-03T03:59:12.051Z,17.59
2023-09-03T04:01:40.572Z,17.54
2023-09-03T04:04:08.634Z,17.49
2023-09-03T04:06:36.783Z,17.46
2023-09-03T04:09:05.001Z,17.41
2023-09-03T04:11:33.065Z,17.40
2023-09-03T04:14:01.208Z,17.38
2023-09-03T04:16:30.521Z,17.40
2023-09-03T04:18:58.558Z,17.41
2023-09-03T04:21:26.573Z,17.41
2023-09-03T04:23:54.508Z,17.43
2023-09-03T04:26:22.538Z,17.42
2023-09-03T04:28:50.474Z,17.45
2023-09-03T04:31:18.489Z,17.42
2023-09-03T04:33:47.442Z,17.41
2023-09-03T04:36:15.431Z,17.42
2023-09-03T04:38:43.444Z,17.46
2023-09-03T04:41:11.521Z,17.43
2023-09-03T04:43:39.530Z,17.41
2023-09-03T04:46:07.754Z,17.40
2023-09-03T04:48:35.715Z,17.37
2023-09-03T04:51:08.953Z,17.30
2023-09-03T04:53:37.193Z,17.24
2023-09-03T04:56:13.187Z,17.24
2023-09-03T04:58:41.203Z,17.23
2023-09-03T05:01:16.624Z,17.25
2023-09-03T05:03:44.766Z,17.25
2023-09-03T05:06:16.800Z,17.27
2023-09-03T05:08:46.698Z,17.31
2023-09-03T05:11:15.074Z,17.35
2023-09-03T05:13:43.111Z,17.38
2023-09-03T05:16:11.167Z,17.37
2023-09-03T05:18:39.190Z,17.38
2023-09-03T05:21:10.719Z,17.39
2023-09-03T05:23:40.792Z,17.42
2023-09-03T05:26:08.817Z,17.44
2023-09-03T05:28:36.867Z,17.45
2023-09-03T05:31:05.072Z,17.46
2023-09-03T05:33:33.161Z,17.44
2023-09-03T05:36:01.443Z,17.41
2023-09-03T05:38:29.407Z,17.40
2023-09-03T05:41:00.112Z,17.39
2023-09-03T05:43:28.407Z,17.40
2023-09-03T05:45:56.470Z,17.44
2023-09-03T05:48:24.695Z,17.47
2023-09-03T05:50:59.039Z,17.55
2023-09-03T05:53:27.144Z,17.54
2023-09-03T05:55:56.308Z,17.54
2023-09-03T05:58:25.712Z,17.57
2023-09-03T06:00:53.777Z,17.59
2023-09-03T06:03:22.012Z,17.60
2023-09-03T06:05:50.118Z,17.56
2023-09-03T06:08:18.135Z,17.60
2023-09-03T06:10:46.344Z,17.65
2023-09-03T06:13:14.312Z,17.72
2023-09-03T06:15:44.079Z,17.70
2023-09-03T06:18:13.330Z,17.69
2023-09-03T06:20:41.359Z,17.67
2023-09-03T06:23:10.180Z,17.71
2023-09-03T06:25:39.317Z,17.73
2023-09-03T06:28:07.632Z,17.73
2023-09-03T06:30:35.673Z,17.88
2023-09-03T06:33:06.111Z,17.82
2023-09-03T06:35:34.064Z,17.82
2023-09-03T06:38:01.999Z,17.90
2023-09-03T06:40:30.050Z,17.92
2023-09-03T06:42:58.252Z,18.00
2023-09-03T06:45:26.217Z,18.13
2023-09-03T06:47:54.168Z,18.23
2023-09-03T06:50:23.805Z,18.30
2023-09-03T06:52:51.828Z,18.38
2023-09-03T06:55:20.005Z,18.45
2023-09-03T06:57:48.080Z,18.53
2023-09-03T07:00:17.016Z,18.62
2023-09-03T07:02:45.112Z,18.73
2023-09-03T07:05:15.335Z,18.84
2023-09-03T07:07:45.017Z,18.89
2023-09-03T07:10:13.072Z,18.97
2023-09-03T07:12:41.323Z,19.01
2023-09-03T07:15:10.528Z,19.05
2023-09-03T07:17:40.698Z,19.13
2023-09-03T07:20:10.272Z,19.18
2023-09-03T07:22:38.391Z,19.27
2023-09-03T07:25:13.370Z,19.35
2023-09-03T07:27:41.772Z,19.44
2023-09-03T07:30:10.655Z,19.59
2023-09-03T07:32:39.878Z,19.62
2023-09-03T07:35:09.345Z,19.67
2023-09-03T07:37:37.455Z,19.82
2023-09-03T07:40:09.402Z,19.98
2023-09-03T07:42:41.982Z,20.08
2023-09-03T07:45:12.897Z,20.31
2023-09-03T07:47:40.948Z,20.48
2023-09-03T07:50:09.815Z,20.60
2023-09-03T07:52:38.113Z,20.69
2023-09-03T07:55:08.715Z,20.81
2023-09-03T07:57:36.772Z,20.92
2023-09-03T08:00:06.217Z,21.09
2023-09-03T08:02:34.252Z,21.24
2023-09-03T08:05:02.329Z,21.42
2023-09-03T08:07:30.542Z,21.43
2023-09-03T08:09:58.508Z,21.49
2023-09-03T08:12:27.809Z,21.58
2023-09-03T08:14:58.181Z,21.66
2023-09-03T08:17:27.778Z,21.80
2023-09-03T08:19:55.933Z,21.72
2023-09-03T08:22:23.842Z,21.85
2023-09-03T08:24:52.117Z,22.02
2023-09-03T08:27:20.144Z,22.19
2023-09-03T08:29:49.646Z,22.34
2023-09-03T08:32:20.549Z,22.45
2023-09-03T08:34:48.513Z,22.48
2023-09-03T08:37:16.528Z,22.59
2023-09-03T08:39:44.811Z,22.65
2023-09-03T08:42:15.559Z,22.72
2023-09-03T08:44:51.849Z,22.90
2023-09-03T08:47:20.260Z,23.13
2023-09-03T08:49:49.570Z,23.32
2023-09-03T08:52:18.157Z,23.32
2023-09-03T08:54:46.458Z,23.11
2023-09-03T08:57:14.557Z,23.15
2023-09-03T08:59:42.733Z,23.13
2023-09-03T09:02:16.491Z,23.23
2023-09-03T09:04:44.875Z,23.30
2023-09-03T09:07:13.121Z,23.48
2023-09-03T09:09:44.439Z,23.36
2023-09-03T09:12:19.759Z,23.44
2023-09-03T09:14:55.073Z,23.54
2023-09-03T09:17:27.300Z,23.68
2023-09-03T09:19:55.379Z,23.69
2023-09-03T09:22:24.723Z,23.60
2023-09-03T09:24:54.891Z,23.62
2023-09-03T09:27:24.795Z,23.70
2023-09-03T09:29:52.742Z,23.79
2023-09-03T09:32:25.346Z,23.89
2023-09-03T09:34:55.396Z,24.12
2023-09-03T09:37:23.484Z,24.26
2023-09-03T09:39:52.133Z,24.34
2023-09-03T09:42:20.688Z,24.34
2023-09-03T09:45:00.416Z,24.30
2023-09-03T09:47:30.497Z,24.46
2023-09-03T09:49:58.597Z,24.56
2023-09-03T09:52:36.384Z,24.71
2023-09-03T09:55:09.315Z,24.81
2023-09-03T09:57:42.550Z,24.88
2023-09-03T10:00:12.431Z,24.95
2023-09-03T10:02:41.846Z,25.13
2023-09-03T10:05:12.451Z,25.19
2023-09-03T10:07:42.191Z,25.26
2023-09-03T10:10:11.778Z,25.29
2023-09-03T10:12:40.918Z,25.37
2023-09-03T10:15:10.760Z,25.32
2023-09-03T10:17:42.381Z,25.19
2023-09-03T10:20:13.875Z,25.33
2023-09-03T10:22:44.006Z,25.48
2023-09-03T10:25:16.639Z,25.38
2023-09-03T10:27:51.314Z,25.21
2023-09-03T10:30:24.959Z,25.12
2023-09-03T10:32:55.675Z,25.18
2023-09-03T10:35:24.266Z,25.35
2023-09-03T10:37:52.583Z,25.34
2023-09-03T10:40:22.240Z,25.40
2023-09-03T10:42:50.351Z,25.36
2023-09-03T10:45:19.445Z,25.31
2023-09-03T10:48:06.421Z,25.42
2023-09-03T10:50:45.766Z,25.44
2023-09-03T10:53:38.399Z,25.51
2023-09-03T10:56:14.201Z,25.57
2023-09-03T10:58:56.912Z,25.76
2023-09-03T11:01:27.825Z,25.84
2023-09-03T11:04:06.930Z,25.86
2023-09-03T11:06:36.643Z,25.91
2023-09-03T11:09:25.990Z,25.96
2023-09-03T11:12:02.440Z,25.91
2023-09-03T11:14:32.103Z,25.87
2023-09-03T11:17:00.704Z,25.73
2023-09-03T11:19:40.997Z,25.78
2023-09-03T11:22:09.108Z,25.80
2023-09-03T11:24:47.438Z,25.96
2023-09-03T11:27:15.769Z,26.05
2023-09-03T11:29:43.794Z,26.09
2023-09-03T11:32:12.104Z,26.09
2023-09-03T11:34:41.678Z,26.08
2023-09-03T11:37:10.915Z,26.03
2023-09-03T11:39:39.004Z,26.06
2023-09-03T11:42:15.474Z,26.04
2023-09-03T11:44:43.646Z,26.15
2023-09-03T11:47:11.731Z,26.33
2023-09-03T11:49:46.370Z,26.45
2023-09-03T11:52:15.495Z,26.43
2023-09-03T11:54:44.256Z,26.60
2023-09-03T11:57:14.865Z,26.67
2023-09-03T11:59:44.247Z,26.63
2023-09-03T12:02:13.017Z,26.82
2023-09-03T12:04:45.090Z,26.87
2023-09-03T12:07:18.768Z,26.93
2023-09-03T12:09:50.615Z,26.90
2023-09-03T12:12:19.207Z,26.79
2023-09-03T12:14:47.381Z,26.75
2023-09-03T12:17:24.336Z,26.64
2023-09-03T12:19:53.886Z,26.70
2023-09-03T12:22:23.912Z,26.83
2023-09-03T12:24:52.308Z,26.75
2023-09-03T12:27:20.517Z,26.56
2023-09-03T12:29:53.024Z,26.51
2023-09-03T12:32:35.759Z,26.33
2023-09-03T12:35:17.660Z,26.12
2023-09-03T12:37:45.750Z,25.97
2023-09-03T12:40:13.849Z,25.92
2023-09-03T12:42:41.835Z,25.92
2023-09-03T12:45:11.216Z,26.25
2023-09-03T12:47:42.142Z,26.31
2023-09-03T12:50:10.780Z,26.39
2023-09-03T12:52:40.394Z,26.36
2023-09-03T12:55:09.199Z,26.44
2023-09-03T12:57:37.303Z,26.52
2023-09-03T13:00:09.003Z,26.51
2023-09-03T13:02:39.034Z,26.55
2023-09-03T13:05:07.828Z,26.70
2023-09-03T13:07:35.927Z,26.92
2023-09-03T13:10:05.920Z,27.05
2023-09-03T13:12:34.113Z,27.13
2023-09-03T13:15:02.035Z,27.27
2023-09-03T13:17:32.080Z,27.25
2023-09-03T13:20:00.464Z,27.17
2023-09-03T13:22:28.435Z,27.11
2023-09-03T13:24:56.407Z,27.14
2023-09-03T13:27:25.888Z,27.10
2023-09-03T13:29:53.856Z,27.08
2023-09-03T13:32:21.912Z,26.90
2023-09-03T13:34:49.889Z,26.74
2023-09-03T13:37:17.869Z,26.67
2023-09-03T13:39:45.837Z,26.57
2023-09-03T13:42:13.819Z,26.43
2023-09-03T13:44:43.110Z,26.40
2023-09-03T13:47:11.173Z,26.48
2023-09-03T13:49:39.121Z,26.59
2023-09-03T13:52:07.460Z,26.59
2023-09-03T13:54:35.503Z,26.72
2023-09-03T13:57:03.497Z,26.61
2023-09-03T13:59:32.050Z,26.69
2023-09-03T14:02:01.521Z,26.66
2023-09-03T14:04:29.452Z,26.58
2023-09-03T14:06:57.439Z,26.52
2023-09-03T14:09:25.644Z,26.50
2023-09-03T14:11:54.415Z,26.48
2023-09-03T14:14:22.460Z,26.57
2023-09-03T14:16:50.580Z,26.62
2023-09-03T14:19:22.367Z,26.71
2023-09-03T14:21:51.765Z,26.73
2023-09-03T14:24:19.713Z,26.75
2023-09-03T14:26:47.929Z,26.76
2023-09-03T14:29:17.626Z,26.77
2023-09-03T14:31:53.546Z,26.73
2023-09-03T14:34:23.040Z,26.67
2023-09-03T14:36:51.045Z,26.48
2023-09-03T14:39:21.646Z,26.45
2023-09-03T14:41:51.544Z,26.48
2023-09-03T14:44:19.588Z,26.39
2023-09-03T14:46:47.544Z,26.42
2023-09-03T14:49:20.820Z,26.38
2023-09-03T14:51:50.436Z,26.35
2023-09-03T14:54:18.709Z,26.36
2023-09-03T14:56:46.980Z,26.34
2023-09-03T14:59:15.032Z,26.32
2023-09-03T15:01:43.097Z,26.25
2023-09-03T15:04:11.059Z,26.20
2023-09-03T15:06:39.222Z,26.22
2023-09-03T15:09:09.108Z,26.20
2023-09-03T15:11:37.559Z,26.16
2023-09-03T15:14:15.316Z,26.15
2023-09-03T15:16:44.681Z,26.06
2023-09-03T15:19:15.178Z,26.04
2023-09-03T15:21:44.610Z,25.90
2023-09-03T15:24:14.227Z,25.89
2023-09-03T15:26:42.126Z,25.82
2023-09-03T15:29:10.095Z,25.78
2023-09-03T15:31:38.353Z,25.79
2023-09-03T15:34:10.004Z,25.79
2023-09-03T15:36:39.979Z,25.72
2023-09-03T15:39:07.906Z,25.73
2023-09-03T15:41:37.273Z,25.77
2023-09-03T15:44:05.252Z,25.76
2023-09-03T15:46:33.242Z,25.75
2023-09-03T15:49:02.161Z,25.73
2023-09-03T15:51:30.747Z,25.77
2023-09-03T15:53:58.769Z,25.78
2023-09-03T15:56:26.836Z,25.85
2023-09-03T15:58:57.191Z,25.72
2023-09-03T16:01:25.350Z,25.71
2023-09-03T16:03:53.401Z,25.73
2023-09-03T16:06:22.054Z,25.67
2023-09-03T16:08:49.964Z,25.60
2023-09-03T16:11:18.869Z,25.49
2023-09-03T16:13:48.659Z,25.49
2023-09-03T16:16:18.080Z,25.32
2023-09-03T16:18:46.436Z,25.32
2023-09-03T16:21:15.822Z,25.25
2023-09-03T16:23:44.064Z,25.23
2023-09-03T16:26:12.301Z,25.17
2023-09-03T16:28:40.248Z,25.20
2023-09-03T16:31:08.293Z,25.12
2023-09-03T16:33:37.736Z,25.15
2023-09-03T16:36:06.188Z,25.13
2023-09-03T16:38:34.252Z,25.05
2023-09-03T16:41:02.180Z,24.98
2023-09-03T16:43:30.415Z,24.87
2023-09-03T16:45:58.349Z,24.78
2023-09-03T16:48:28.393Z,24.71
2023-09-03T16:50:57.658Z,24.63
2023-09-03T16:53:25.742Z,24.49
2023-09-03T16:55:53.731Z,24.49
2023-09-03T16:58:23.065Z,24.42
2023-09-03T17:00:51.356Z,24.38
2023-09-03T17:03:19.511Z,24.37
2023-09-03T17:05:47.600Z,24.30
2023-09-03T17:08:16.939Z,24.23
2023-09-03T17:10:45.425Z,24.14
2023-09-03T17:13:13.509Z,24.10
2023-09-03T17:15:42.289Z,24.04
2023-09-03T17:18:11.254Z,23.97
2023-09-03T17:20:43.003Z,23.89
2023-09-03T17:23:11.181Z,23.81
2023-09-03T17:25:40.530Z,23.70
2023-09-03T17:28:09.324Z,23.59
2023-09-03T17:30:41.445Z,23.49
2023-09-03T17:33:09.647Z,23.38
2023-09-03T17:35:38.126Z,23.28
2023-09-03T17:38:07.603Z,23.19
2023-09-03T17:40:39.853Z,23.10
2023-09-03T17:43:09.316Z,23.01
2023-09-03T17:45:40.760Z,22.90
2023-09-03T17:48:09.061Z,22.77
2023-09-03T17:50:37.256Z,22.63
2023-09-03T17:53:07.743Z,22.51
2023-09-03T17:55:35.763Z,22.42
2023-09-03T17:58:08.811Z,22.32
2023-09-03T18:00:39.561Z,22.23
2023-09-03T18:03:09.437Z,22.15
2023-09-03T18:05:39.902Z,22.08
2023-09-03T18:08:08.353Z,21.97
2023-09-03T18:10:36.439Z,21.91
2023-09-03T18:13:06.959Z,21.86
2023-09-03T18:15:35.418Z,21.84
2023-09-03T18:18:09.515Z,21.82
2023-09-03T18:20:39.925Z,21.78
2023-09-03T18:23:07.982Z,21.70
2023-09-03T18:25:36.069Z,21.61
2023-09-03T18:28:04.034Z,21.54
2023-09-03T18:30:32.429Z,21.49
2023-09-03T18:33:00.552Z,21.44
2023-09-03T18:35:31.621Z,21.38
2023-09-03T18:37:59.723Z,21.29
2023-09-03T18:40:28.481Z,21.25
2023-09-03T18:42:58.113Z,21.20
2023-09-03T18:45:27.387Z,21.15
2023-09-03T18:47:58.519Z,21.10
2023-09-03T18:50:27.620Z,21.09
2023-09-03T18:52:59.031Z,21.03
2023-09-03T18:55:27.108Z,20.99
2023-09-03T18:57:55.175Z,20.95
2023-09-03T19:00:23.882Z,20.98
2023-09-03T19:02:53.379Z,20.95
2023-09-03T19:05:29.423Z,21.00
2023-09-03T19:07:59.287Z,21.01
2023-09-03T19:10:27.198Z,21.06
2023-09-03T19:12:57.374Z,21.05
2023-09-03T19:15:25.542Z,21.06
2023-09-03T19:17:58.135Z,21.07
2023-09-03T19:20:28.133Z,21.04
2023-09-03T19:22:57.782Z,21.01
2023-09-03T19:25:27.319Z,20.98
2023-09-03T19:27:56.554Z,20.91
2023-09-03T19:30:24.766Z,20.85
2023-09-03T19:32:56.100Z,20.78
2023-09-03T19:35:42.240Z,20.73
2023-09-03T19:38:25.134Z,20.68
2023-09-03T19:41:09.175Z,20.61
2023-09-03T19:43:54.193Z,20.57
2023-09-03T19:46:23.903Z,20.56
2023-09-03T19:48:54.243Z,20.50
2023-09-03T19:51:30.600Z,20.37
2023-09-03T19:54:07.485Z,20.30
2023-09-03T19:56:40.357Z,20.20
2023-09-03T19:59:09.132Z,20.13
2023-09-03T20:01:38.375Z,20.14
2023-09-03T20:04:08.263Z,20.07
2023-09-03T20:06:36.917Z,20.09
2023-09-03T20:09:06.887Z,20.06
2023-09-03T20:11:36.517Z,20.09
2023-09-03T20:14:04.596Z,20.12
2023-09-03T20:16:32.542Z,20.14
2023-09-03T20:19:00.624Z,20.13
2023-09-03T20:21:28.857Z,20.11
2023-09-03T20:23:56.826Z,20.01
2023-09-03T20:26:25.671Z,19.97
2023-09-03T20:28:55.209Z,19.95
2023-09-03T20:31:23.294Z,19.85
2023-09-03T20:33:51.975Z,19.84
2023-09-03T20:36:19.930Z,19.84
2023-09-03T20:38:48.055Z,19.82
2023-09-03T20:41:16.054Z,19.84
2023-09-03T20:43:44.076Z,19.84
2023-09-03T20:46:13.615Z,19.84
2023-09-03T20:48:41.606Z,19.75
2023-09-03T20:51:09.675Z,19.68
2023-09-03T20:53:37.830Z,19.60
2023-09-03T20:56:06.337Z,19.53
2023-09-03T20:58:34.361Z,19.48
2023-09-03T21:01:02.432Z,19.48
2023-09-03T21:03:37.269Z,19.44
2023-09-03T21:06:05.398Z,19.42
2023-09-03T21:08:33.572Z,19.43
2023-09-03T21:11:02.660Z,19.40
2023-09-03T21:13:31.812Z,19.37
2023-09-03T21:16:00.534Z,19.32
2023-09-03T21:18:29.472Z,19.21
2023-09-03T21:21:05.944Z,18.93
2023-09-03T21:23:36.240Z,18.91
2023-09-03T21:26:05.619Z,18.94
2023-09-03T21:28:33.862Z,18.89
2023-09-03T21:31:03.748Z,18.84
2023-09-03T21:33:34.605Z,18.84
2023-09-03T21:36:09.431Z,18.74
2023-09-03T21:38:37.468Z,18.71
2023-09-03T21:41:11.442Z,18.65
2023-09-03T21:43:39.907Z,18.65
2023-09-03T21:46:08.296Z,18.64
2023-09-03T21:48:44.136Z,18.66
2023-09-03T21:51:19.990Z,18.74
2023-09-03T21:53:51.430Z,18.77
2023-09-03T21:56:28.303Z,18.82
2023-09-03T21:59:02.257Z,18.84
2023-09-03T22:01:33.315Z,18.84
2023-09-03T22:04:05.453Z,18.83
2023-09-03T22:06:34.920Z,18.82
2023-09-03T22:09:08.907Z,18.79
2023-09-03T22:11:38.414Z,18.71
2023-09-03T22:14:09.483Z,18.71
2023-09-03T22:16:39.650Z,18.66
2023-09-03T22:19:24.160Z,18.61
2023-09-03T22:21:59.217Z,18.58
2023-09-03T22:24:28.772Z,18.53
2023-09-03T22:26:56.695Z,18.52
2023-09-03T22:29:24.978Z,18.48
2023-09-03T22:31:52.980Z,18.45
2023-09-03T22:34:21.098Z,18.44
2023-09-03T22:36:51.630Z,18.38
2023-09-03T22:39:21.474Z,18.33
2023-09-03T22:41:51.509Z,18.31
2023-09-03T22:44:19.526Z,18.31
2023-09-03T22:46:51.835Z,18.21
2023-09-03T22:49:22.183Z,18.23
2023-09-03T22:51:52.892Z,18.23
2023-09-03T22:54:22.536Z,18.21
2023-09-03T22:56:50.560Z,18.21
2023-09-03T22:59:18.673Z,18.09
2023-09-03T23:01:47.177Z,18.06
2023-09-03T23:04:15.439Z,18.09
2023-09-03T23:06:46.389Z,18.02
2023-09-03T23:09:15.208Z,17.98
2023-09-03T23:11:44.824Z,17.93
2023-09-03T23:14:14.539Z,17.90
2023-09-03T23:16:42.654Z,17.90
2023-09-03T23:19:10.682Z,17.91
2023-09-03T23:21:39.683Z,17.87
2023-09-03T23:24:08.464Z,17.84
2023-09-03T23:26:36.428Z,17.84
2023-09-03T23:29:05.896Z,17.88
2023-09-03T23:31:35.825Z,17.88
2023-09-03T23:34:04.051Z,17.87
2023-09-03T23:36:32.902Z,17.90
2023-09-03T23:39:00.888Z,17.93
2023-09-03T23:41:28.874Z,17.89
2023-09-03T23:43:56.877Z,17.86
2023-09-03T23:46:26.428Z,17.82
2023-09-03T23:48:54.617Z,17.75
2023-09-03T23:51:22.673Z,17.71
2023-09-03T23:53:50.818Z,17.67
2023-09-03T23:56:19.111Z,17.64
2023-09-03T23:58:47.213Z,17.70
